Time;durP1;ratioP1;P1;durP2;ratioP2;P2;SDS_P1;SDS_P2;PMS_P1;PMS_P2;Temp;Humidity;BMP_temperature;BMP_pressure;BME280_temperature;BME280_humidity;BME280_pressure;Samples;Min_cycle;Max_cycle;Signal;HPM_P1;HPM_P2
2024/01/21 00:01:45;;;;;;;3.35;1.50;;;;;;;;;;5027095;28;20029;-82
2024/01/21 00:04:11;;;;;;;2.22;1.30;;;;;;;;;;5007773;28;20042;-83
2024/01/21 00:06:37;;;;;;;2.22;1.30;;;;;;;;;;5018707;28;20026;-83
2024/01/21 00:09:02;;;;;;;1.70;1.08;;;;;;;;;;4998707;28;20084;-84
2024/01/21 00:11:28;;;;;;;3.42;1.40;;;;;;;;;;5021016;28;20031;-83
2024/01/21 00:13:53;;;;;;;4.38;1.27;;;;;;;;;;5023354;28;20049;-82
2024/01/21 00:16:19;;;;;;;3.17;1.45;;;;;;;;;;5003549;28;20521;-83
2024/01/21 00:18:44;;;;;;;2.33;1.17;;;;;;;;;;5019611;28;20072;-82
2024/01/21 00:21:10;;;;;;;3.30;1.50;;;;;;;;;;5022731;28;20028;-82
2024/01/21 00:23:35;;;;;;;2.33;1.25;;;;;;;;;;5022146;28;20030;-83
2024/01/21 00:26:01;;;;;;;3.35;1.13;;;;;;;;;;5024055;28;20476;-82
2024/01/21 00:28:26;;;;;;;2.25;1.00;;;;;;;;;;5022214;28;20169;-82
2024/01/21 00:30:52;;;;;;;4.50;1.17;;;;;;;;;;5005963;28;20029;-81
2024/01/21 00:33:17;;;;;;;2.65;1.27;;;;;;;;;;5026480;28;20047;-82
2024/01/21 00:35:43;;;;;;;1.55;1.02;;;;;;;;;;5025042;28;20030;-82
2024/01/21 00:38:08;;;;;;;2.38;1.10;;;;;;;;;;5023802;28;20052;-82
2024/01/21 00:40:34;;;;;;;1.52;1.10;;;;;;;;;;5012162;28;20034;-82
2024/01/21 00:42:59;;;;;;;3.05;1.20;;;;;;;;;;5006162;28;20030;-81
2024/01/21 00:45:26;;;;;;;2.53;1.33;;;;;;;;;;5018184;28;20069;-82
2024/01/21 00:47:51;;;;;;;2.58;1.33;;;;;;;;;;5022194;28;20029;-81
2024/01/21 00:50:17;;;;;;;2.58;1.40;;;;;;;;;;5000059;28;20036;-82
2024/01/21 00:52:42;;;;;;;2.38;1.20;;;;;;;;;;5020289;28;20060;-81
2024/01/21 00:55:08;;;;;;;1.90;1.20;;;;;;;;;;5022238;28;20502;-82
2024/01/21 00:57:33;;;;;;;2.38;1.13;;;;;;;;;;5019429;28;20584;-83
2024/01/21 00:59:59;;;;;;;2.15;1.15;;;;;;;;;;5027630;28;20089;-83
2024/01/21 01:02:24;;;;;;;2.58;1.13;;;;;;;;;;5025642;28;20515;-83
2024/01/21 01:04:50;;;;;;;2.80;0.90;;;;;;;;;;5007900;28;20037;-82
2024/01/21 01:07:15;;;;;;;2.92;1.30;;;;;;;;;;5007721;28;20109;-82
2024/01/21 01:09:41;;;;;;;3.83;1.20;;;;;;;;;;5030321;28;20040;-84
2024/01/21 01:12:07;;;;;;;2.17;0.90;;;;;;;;;;5028310;28;20061;-82
2024/01/21 01:14:33;;;;;;;2.22;1.00;;;;;;;;;;5013848;28;20045;-82
2024/01/21 01:16:59;;;;;;;1.73;1.08;;;;;;;;;;5027514;28;20042;-82
2024/01/21 01:19:24;;;;;;;3.38;1.10;;;;;;;;;;5008120;28;20057;-83
2024/01/21 01:21:51;;;;;;;1.92;0.90;;;;;;;;;;5031946;28;20029;-82
2024/01/21 01:24:16;;;;;;;3.05;1.27;;;;;;;;;;5010277;28;20484;-82
2024/01/21 01:26:42;;;;;;;3.80;1.10;;;;;;;;;;5001982;28;20064;-83
2024/01/21 01:29:08;;;;;;;1.75;1.10;;;;;;;;;;5030996;28;20126;-82
2024/01/21 01:31:33;;;;;;;1.60;0.90;;;;;;;;;;5029885;28;20038;-82
2024/01/21 01:33:59;;;;;;;2.60;1.30;;;;;;;;;;5034564;28;20093;-82
2024/01/21 01:36:24;;;;;;;3.25;1.30;;;;;;;;;;5035049;28;20120;-84
2024/01/21 01:38:50;;;;;;;2.33;1.17;;;;;;;;;;5019702;28;20048;-84
2024/01/21 01:41:15;;;;;;;2.13;1.00;;;;;;;;;;5035539;28;20047;-85
2024/01/21 01:43:41;;;;;;;1.00;0.80;;;;;;;;;;5037056;28;20407;-84
2024/01/21 01:46:07;;;;;;;1.48;0.88;;;;;;;;;;5025899;28;20045;-83
2024/01/21 01:48:33;;;;;;;1.13;0.88;;;;;;;;;;5026923;28;20033;-83
2024/01/21 01:51:00;;;;;;;1.23;0.80;;;;;;;;;;5021524;28;20026;-83
2024/01/21 01:53:28;;;;;;;4.75;1.00;;;;;;;;;;5031948;28;20151;-84
2024/01/21 01:55:54;;;;;;;1.10;0.90;;;;;;;;;;5032790;28;20029;-82
2024/01/21 01:58:26;;;;;;;1.67;0.80;;;;;;;;;;5032666;28;20033;-86
2024/01/21 02:00:52;;;;;;;3.13;0.80;;;;;;;;;;5034204;28;20029;-83
2024/01/21 02:03:18;;;;;;;1.80;0.98;;;;;;;;;;5033916;28;20014;-83
2024/01/21 02:05:44;;;;;;;1.95;1.00;;;;;;;;;;5032565;28;20034;-83
2024/01/21 02:08:10;;;;;;;2.42;0.80;;;;;;;;;;5002861;28;20077;-82
2024/01/21 02:10:35;;;;;;;0.82;0.63;;;;;;;;;;5028113;28;20029;-84
2024/01/21 02:13:01;;;;;;;2.05;0.85;;;;;;;;;;5014690;28;20548;-83
2024/01/21 02:15:26;;;;;;;1.50;0.93;;;;;;;;;;5004635;28;20034;-82
2024/01/21 02:17:52;;;;;;;1.52;1.00;;;;;;;;;;5017741;28;20033;-82
2024/01/21 02:20:17;;;;;;;1.83;1.00;;;;;;;;;;5017569;28;20044;-82
2024/01/21 02:22:43;;;;;;;1.67;0.80;;;;;;;;;;5030614;28;20069;-83
2024/01/21 02:25:09;;;;;;;3.20;0.93;;;;;;;;;;5034380;28;20049;-82
2024/01/21 02:27:35;;;;;;;2.00;1.10;;;;;;;;;;5035761;28;20048;-83
2024/01/21 02:30:01;;;;;;;2.08;1.00;;;;;;;;;;5003489;28;20025;-83
2024/01/21 02:32:27;;;;;;;1.10;0.80;;;;;;;;;;5028735;28;20092;-82
2024/01/21 02:34:52;;;;;;;1.33;0.73;;;;;;;;;;5035299;28;20114;-83
2024/01/21 02:37:18;;;;;;;2.15;0.82;;;;;;;;;;5031461;28;20037;-83
2024/01/21 02:39:44;;;;;;;1.38;0.88;;;;;;;;;;5027519;28;20045;-82
2024/01/21 02:42:10;;;;;;;1.92;0.82;;;;;;;;;;5033726;28;20064;-82
2024/01/21 02:44:36;;;;;;;2.35;0.93;;;;;;;;;;5028146;28;20038;-85
2024/01/21 02:47:01;;;;;;;1.52;0.93;;;;;;;;;;5017322;28;20120;-83
2024/01/21 02:49:28;;;;;;;2.00;0.82;;;;;;;;;;5031782;28;20029;-82
2024/01/21 02:51:58;;;;;;;2.03;1.00;;;;;;;;;;5024959;28;20040;-83
2024/01/21 02:54:24;;;;;;;1.70;0.98;;;;;;;;;;5009217;28;20038;-82
2024/01/21 02:56:50;;;;;;;2.15;0.85;;;;;;;;;;5032996;28;20037;-81
2024/01/21 02:59:15;;;;;;;0.93;0.80;;;;;;;;;;5024655;28;20072;-84
2024/01/21 03:01:41;;;;;;;1.35;0.65;;;;;;;;;;5010242;28;20079;-84
2024/01/21 03:04:11;;;;;;;1.40;0.80;;;;;;;;;;5032617;28;20057;-82
2024/01/21 03:06:36;;;;;;;1.00;0.68;;;;;;;;;;5029067;28;20049;-82
2024/01/21 03:09:01;;;;;;;2.95;0.90;;;;;;;;;;5016772;28;20037;-83
2024/01/21 03:11:27;;;;;;;1.35;0.77;;;;;;;;;;5012771;28;20499;-83
2024/01/21 03:13:53;;;;;;;2.80;0.82;;;;;;;;;;5025046;28;20049;-82
2024/01/21 03:16:18;;;;;;;1.23;0.70;;;;;;;;;;5029871;28;20111;-83
2024/01/21 03:18:44;;;;;;;1.17;0.75;;;;;;;;;;5032954;28;20494;-82
2024/01/21 03:21:09;;;;;;;2.00;0.80;;;;;;;;;;5021261;28;20034;-83
2024/01/21 03:23:35;;;;;;;0.98;0.70;;;;;;;;;;5023747;28;20502;-83
2024/01/21 03:26:01;;;;;;;0.70;0.63;;;;;;;;;;5029132;28;20055;-82
2024/01/21 03:28:26;;;;;;;3.22;0.93;;;;;;;;;;5025484;28;20029;-82
2024/01/21 03:30:52;;;;;;;1.30;0.70;;;;;;;;;;5022233;28;20030;-81
2024/01/21 03:33:18;;;;;;;1.30;0.70;;;;;;;;;;5013792;28;20057;-82
2024/01/21 03:35:43;;;;;;;1.63;0.55;;;;;;;;;;5000680;28;20496;-82
2024/01/21 03:38:08;;;;;;;1.05;0.60;;;;;;;;;;5023149;28;20033;-82
2024/01/21 03:40:37;;;;;;;2.45;0.90;;;;;;;;;;5020247;28;20088;-81
2024/01/21 03:43:02;;;;;;;1.08;0.70;;;;;;;;;;5011508;28;20092;-81
2024/01/21 03:45:28;;;;;;;1.20;0.82;;;;;;;;;;5011901;28;20046;-82
2024/01/21 03:47:53;;;;;;;0.98;0.80;;;;;;;;;;5026453;28;20085;-83
2024/01/21 03:50:20;;;;;;;1.70;0.80;;;;;;;;;;5016342;28;20034;-82
2024/01/21 03:52:47;;;;;;;1.10;0.70;;;;;;;;;;5024740;28;20034;-82
2024/01/21 03:55:15;;;;;;;1.00;0.80;;;;;;;;;;5029675;28;20048;-83
2024/01/21 03:57:40;;;;;;;1.40;1.00;;;;;;;;;;5023800;28;20108;-83
2024/01/21 04:00:08;;;;;;;1.33;0.70;;;;;;;;;;5033159;28;20556;-82
2024/01/21 04:02:37;;;;;;;1.65;0.90;;;;;;;;;;5032511;28;20042;-82
2024/01/21 04:05:03;;;;;;;0.73;0.60;;;;;;;;;;4998729;28;20025;-83
2024/01/21 04:07:30;;;;;;;1.42;0.70;;;;;;;;;;5035183;28;20046;-83
2024/01/21 04:09:55;;;;;;;1.65;0.80;;;;;;;;;;5038129;28;20061;-81
2024/01/21 04:12:20;;;;;;;0.95;0.75;;;;;;;;;;5014253;28;20033;-82
2024/01/21 04:14:46;;;;;;;1.23;0.80;;;;;;;;;;5033041;28;20563;-83
2024/01/21 04:17:11;;;;;;;1.83;0.90;;;;;;;;;;5012167;28;20029;-83
2024/01/21 04:19:37;;;;;;;1.35;0.75;;;;;;;;;;5015488;28;20914;-83
2024/01/21 04:22:03;;;;;;;1.77;1.00;;;;;;;;;;5036750;28;20041;-83
2024/01/21 04:24:29;;;;;;;1.50;0.80;;;;;;;;;;5024901;28;20101;-83
2024/01/21 04:26:55;;;;;;;1.25;0.70;;;;;;;;;;5026952;28;20038;-82
2024/01/21 04:29:20;;;;;;;1.52;0.60;;;;;;;;;;5034529;28;20080;-83
2024/01/21 04:31:46;;;;;;;1.00;0.70;;;;;;;;;;5033433;28;20059;-82
2024/01/21 04:34:11;;;;;;;2.35;1.30;;;;;;;;;;5015439;28;20133;-82
2024/01/21 04:36:37;;;;;;;1.48;1.00;;;;;;;;;;5029204;28;20034;-82
2024/01/21 04:39:03;;;;;;;3.67;1.42;;;;;;;;;;5025726;28;20038;-82
2024/01/21 04:41:28;;;;;;;4.80;1.10;;;;;;;;;;5023753;28;20057;-83
2024/01/21 04:43:54;;;;;;;2.22;1.42;;;;;;;;;;5026724;28;20399;-83
2024/01/21 04:46:19;;;;;;;1.40;0.95;;;;;;;;;;5003891;28;20038;-81
2024/01/21 04:48:45;;;;;;;1.75;0.80;;;;;;;;;;5023083;28;20037;-82
2024/01/21 04:51:11;;;;;;;1.20;0.90;;;;;;;;;;5028433;28;20037;-81
2024/01/21 04:53:39;;;;;;;3.63;1.00;;;;;;;;;;5024581;28;20028;-81
2024/01/21 04:56:05;;;;;;;0.85;0.60;;;;;;;;;;5004957;28;20025;-82
2024/01/21 04:58:31;;;;;;;0.95;0.70;;;;;;;;;;5020144;28;20034;-81
2024/01/21 05:00:57;;;;;;;2.22;1.00;;;;;;;;;;5020616;28;20044;-81
2024/01/21 05:03:22;;;;;;;1.38;0.80;;;;;;;;;;5018857;28;20046;-82
2024/01/21 05:05:49;;;;;;;1.48;0.82;;;;;;;;;;4987736;28;20085;-83
2024/01/21 05:08:14;;;;;;;2.13;0.90;;;;;;;;;;5013142;28;20033;-82
2024/01/21 05:10:40;;;;;;;1.60;0.90;;;;;;;;;;5012274;28;20048;-82
2024/01/21 05:13:05;;;;;;;1.58;1.00;;;;;;;;;;5008390;28;20055;-82
2024/01/21 05:15:31;;;;;;;1.40;0.80;;;;;;;;;;5010775;28;20037;-82
2024/01/21 05:17:56;;;;;;;1.40;0.90;;;;;;;;;;5032640;28;20034;-82
2024/01/21 05:20:22;;;;;;;1.08;0.93;;;;;;;;;;5008270;28;20093;-82
2024/01/21 05:22:49;;;;;;;1.77;1.00;;;;;;;;;;5008911;28;20096;-82
2024/01/21 05:25:14;;;;;;;2.13;1.10;;;;;;;;;;5013529;28;20037;-82
2024/01/21 05:27:40;;;;;;;2.72;0.98;;;;;;;;;;5028752;28;20034;-82
2024/01/21 05:30:06;;;;;;;1.15;0.90;;;;;;;;;;5030839;28;20030;-84
2024/01/21 05:32:32;;;;;;;3.42;1.10;;;;;;;;;;5024893;28;20582;-82
2024/01/21 05:34:57;;;;;;;1.67;1.05;;;;;;;;;;5009554;28;20064;-82
2024/01/21 05:37:23;;;;;;;1.42;0.80;;;;;;;;;;5027321;28;20061;-82
2024/01/21 05:39:48;;;;;;;1.17;0.70;;;;;;;;;;5033809;28;20022;-82
2024/01/21 05:42:14;;;;;;;1.33;0.70;;;;;;;;;;5025259;28;20516;-82
2024/01/21 05:44:40;;;;;;;2.10;0.80;;;;;;;;;;5033396;28;20113;-82
2024/01/21 05:47:05;;;;;;;1.05;0.77;;;;;;;;;;5028776;28;20036;-82
2024/01/21 05:49:31;;;;;;;6.53;1.17;;;;;;;;;;5023879;28;20041;-83
2024/01/21 05:51:57;;;;;;;1.52;1.08;;;;;;;;;;5021921;28;20063;-84
2024/01/21 05:54:22;;;;;;;1.48;0.90;;;;;;;;;;5002900;28;20105;-83
2024/01/21 05:56:48;;;;;;;0.82;0.65;;;;;;;;;;5022649;28;20046;-82
2024/01/21 05:59:16;;;;;;;1.25;0.70;;;;;;;;;;5009998;28;20052;-81
2024/01/21 06:01:43;;;;;;;3.90;0.80;;;;;;;;;;5027302;28;20671;-81
2024/01/21 06:04:09;;;;;;;2.35;0.75;;;;;;;;;;4995065;28;20058;-83
2024/01/21 06:06:34;;;;;;;1.23;0.70;;;;;;;;;;5013253;28;20040;-82
2024/01/21 06:09:00;;;;;;;2.00;0.70;;;;;;;;;;5008957;28;20403;-82
2024/01/21 06:11:26;;;;;;;1.00;0.60;;;;;;;;;;4988385;28;20100;-81
2024/01/21 06:13:51;;;;;;;1.02;0.60;;;;;;;;;;5005792;28;20014;-82
2024/01/21 06:16:17;;;;;;;1.00;0.55;;;;;;;;;;5025719;28;20038;-82
2024/01/21 06:18:43;;;;;;;1.13;0.75;;;;;;;;;;5003498;28;20033;-82
2024/01/21 06:21:08;;;;;;;4.30;0.80;;;;;;;;;;5005877;28;20091;-82
2024/01/21 06:23:34;;;;;;;5.35;1.10;;;;;;;;;;5022547;28;20097;-82
2024/01/21 06:25:59;;;;;;;2.28;1.02;;;;;;;;;;5023074;28;20026;-81
2024/01/21 06:28:25;;;;;;;1.40;0.85;;;;;;;;;;5013835;28;20491;-82
2024/01/21 06:30:51;;;;;;;2.10;1.02;;;;;;;;;;5021305;28;20562;-82
2024/01/21 06:33:16;;;;;;;3.50;1.20;;;;;;;;;;4999356;28;20944;-81
2024/01/21 06:35:42;;;;;;;1.85;1.20;;;;;;;;;;5012321;28;20523;-81
2024/01/21 06:38:07;;;;;;;2.38;1.15;;;;;;;;;;4992988;28;20026;-83
2024/01/21 06:40:33;;;;;;;2.92;1.00;;;;;;;;;;5030758;28;20723;-83
2024/01/21 06:42:58;;;;;;;3.95;1.38;;;;;;;;;;5030991;28;20033;-82
2024/01/21 06:45:24;;;;;;;1.88;0.95;;;;;;;;;;5014042;28;20034;-82
2024/01/21 06:47:49;;;;;;;1.80;0.85;;;;;;;;;;5005015;28;20025;-81
2024/01/21 06:50:15;;;;;;;5.60;1.00;;;;;;;;;;5003406;28;20040;-81
2024/01/21 06:52:41;;;;;;;2.03;0.90;;;;;;;;;;5024431;28;20029;-83
2024/01/21 06:55:06;;;;;;;2.13;0.85;;;;;;;;;;5023311;28;20041;-83
2024/01/21 06:57:32;;;;;;;2.30;0.90;;;;;;;;;;5021414;28;20033;-81
2024/01/21 06:59:58;;;;;;;1.80;1.00;;;;;;;;;;5016764;28;20038;-82
2024/01/21 07:02:24;;;;;;;2.20;1.17;;;;;;;;;;5003373;28;20065;-81
2024/01/21 07:04:49;;;;;;;2.55;1.33;;;;;;;;;;5007434;28;20037;-81
2024/01/21 07:07:15;;;;;;;2.78;1.48;;;;;;;;;;5011048;28;20491;-81
2024/01/21 07:09:43;;;;;;;2.95;1.55;;;;;;;;;;5020166;28;20030;-81
2024/01/21 07:12:09;;;;;;;9.50;4.45;;;;;;;;;;5021468;28;20059;-81
2024/01/21 07:14:34;;;;;;;7.20;3.13;;;;;;;;;;5025355;28;20038;-81
2024/01/21 07:17:01;;;;;;;5.55;2.08;;;;;;;;;;5024129;28;20026;-81
2024/01/21 07:19:27;;;;;;;6.18;2.38;;;;;;;;;;5011105;28;20061;-80
2024/01/21 07:21:52;;;;;;;5.38;2.08;;;;;;;;;;5009737;28;20052;-81
2024/01/21 07:24:18;;;;;;;4.53;1.63;;;;;;;;;;5020590;28;20500;-82
2024/01/21 07:26:43;;;;;;;6.25;1.92;;;;;;;;;;5028711;28;20051;-82
2024/01/21 07:29:08;;;;;;;3.47;1.60;;;;;;;;;;5023086;28;20045;-81
2024/01/21 07:31:34;;;;;;;2.60;1.20;;;;;;;;;;5023362;28;20030;-81
2024/01/21 07:33:59;;;;;;;3.58;1.00;;;;;;;;;;5017287;28;20030;-81
2024/01/21 07:36:25;;;;;;;7.28;3.20;;;;;;;;;;5033847;28;20052;-80
2024/01/21 07:38:50;;;;;;;7.30;3.40;;;;;;;;;;5030044;28;20034;-80
2024/01/21 07:41:16;;;;;;;7.78;1.63;;;;;;;;;;5012897;28;20042;-81
2024/01/21 07:43:41;;;;;;;4.70;2.40;;;;;;;;;;5025153;28;20039;-80
2024/01/21 07:46:07;;;;;;;2.63;1.52;;;;;;;;;;5023435;28;20037;-81
2024/01/21 07:48:32;;;;;;;5.57;1.50;;;;;;;;;;5024383;28;20034;-81
2024/01/21 07:50:57;;;;;;;5.07;1.52;;;;;;;;;;5021242;28;20077;-81
2024/01/21 07:53:25;;;;;;;5.00;2.15;;;;;;;;;;5019046;28;20068;-82
2024/01/21 07:55:53;;;;;;;3.40;1.75;;;;;;;;;;5007952;28;20033;-81
2024/01/21 07:58:19;;;;;;;4.07;1.85;;;;;;;;;;5024472;28;20113;-81
2024/01/21 08:00:45;;;;;;;3.15;1.85;;;;;;;;;;5007348;28;20552;-82
2024/01/21 08:03:11;;;;;;;2.75;1.40;;;;;;;;;;5018967;28;20034;-83
2024/01/21 08:05:36;;;;;;;5.88;1.23;;;;;;;;;;5027661;28;20042;-81
2024/01/21 08:08:02;;;;;;;3.63;1.83;;;;;;;;;;5031841;28;20033;-82
2024/01/21 08:10:28;;;;;;;4.53;1.60;;;;;;;;;;5030333;28;20029;-82
2024/01/21 08:12:54;;;;;;;2.38;1.30;;;;;;;;;;5011366;28;20047;-80
2024/01/21 08:15:19;;;;;;;2.67;1.02;;;;;;;;;;5008895;28;20034;-81
2024/01/21 08:17:45;;;;;;;2.08;1.40;;;;;;;;;;5027648;28;20105;-81
2024/01/21 08:20:11;;;;;;;2.50;1.30;;;;;;;;;;5031026;28;20401;-82
2024/01/21 08:22:37;;;;;;;8.38;4.30;;;;;;;;;;5030659;28;20044;-80
2024/01/21 08:25:03;;;;;;;15.55;6.97;;;;;;;;;;5030843;28;20033;-80
2024/01/21 08:27:28;;;;;;;33.72;15.63;;;;;;;;;;5007836;28;20091;-80
2024/01/21 08:29:54;;;;;;;20.77;8.55;;;;;;;;;;5031059;28;20030;-81
2024/01/21 08:32:19;;;;;;;10.88;4.03;;;;;;;;;;5030939;28;20061;-82
2024/01/21 08:34:45;;;;;;;7.53;3.22;;;;;;;;;;5005964;28;20030;-82
2024/01/21 08:37:11;;;;;;;4.40;1.85;;;;;;;;;;5024501;28;20033;-82
2024/01/21 08:39:36;;;;;;;3.70;1.60;;;;;;;;;;5022485;28;20057;-81
2024/01/21 08:42:03;;;;;;;2.17;1.35;;;;;;;;;;5033521;28;20040;-83
2024/01/21 08:44:28;;;;;;;3.13;1.67;;;;;;;;;;5030155;28;20033;-83
2024/01/21 08:46:55;;;;;;;5.90;2.05;;;;;;;;;;5022287;28;20030;-82
2024/01/21 08:49:22;;;;;;;7.88;1.80;;;;;;;;;;5005512;28;20044;-81
2024/01/21 08:51:47;;;;;;;4.53;2.30;;;;;;;;;;5028463;28;20500;-80
2024/01/21 08:54:13;;;;;;;4.53;1.60;;;;;;;;;;5020909;28;20053;-80
2024/01/21 08:56:40;;;;;;;5.50;1.65;;;;;;;;;;5027833;28;20081;-82
2024/01/21 08:59:05;;;;;;;5.38;2.03;;;;;;;;;;5025252;28;20029;-81
2024/01/21 09:01:31;;;;;;;2.53;1.48;;;;;;;;;;5025166;28;20049;-80
2024/01/21 09:03:56;;;;;;;2.58;1.25;;;;;;;;;;5030710;28;20037;-80
2024/01/21 09:06:22;;;;;;;4.45;1.65;;;;;;;;;;5011573;28;20040;-80
2024/01/21 09:08:52;;;;;;;1.70;1.08;;;;;;;;;;5026821;28;20128;-80
2024/01/21 09:11:17;;;;;;;1.63;1.10;;;;;;;;;;5027165;28;20037;-81
2024/01/21 09:13:43;;;;;;;3.10;1.13;;;;;;;;;;5022123;28;20198;-81
2024/01/21 09:16:09;;;;;;;2.22;1.30;;;;;;;;;;5027530;28;20039;-81
2024/01/21 09:18:35;;;;;;;5.22;1.95;;;;;;;;;;5024118;28;20038;-82
2024/01/21 09:21:00;;;;;;;5.30;1.95;;;;;;;;;;5013094;28;20055;-81
2024/01/21 09:23:26;;;;;;;5.10;2.17;;;;;;;;;;5018279;28;20101;-82
2024/01/21 09:25:51;;;;;;;3.38;1.73;;;;;;;;;;5036606;28;20034;-80
2024/01/21 09:28:18;;;;;;;6.30;1.88;;;;;;;;;;5013695;28;20044;-80
2024/01/21 09:30:43;;;;;;;5.57;2.55;;;;;;;;;;5018632;28;20045;-80
2024/01/21 09:33:09;;;;;;;5.55;2.40;;;;;;;;;;5033797;28;20052;-81
2024/01/21 09:35:34;;;;;;;5.85;2.55;;;;;;;;;;5014481;28;20026;-81
2024/01/21 09:38:00;;;;;;;5.07;1.98;;;;;;;;;;5012884;28;20068;-81
2024/01/21 09:40:25;;;;;;;4.45;1.45;;;;;;;;;;5021305;28;20061;-81
2024/01/21 09:42:51;;;;;;;3.13;1.20;;;;;;;;;;5013078;28;20089;-80
2024/01/21 09:45:16;;;;;;;4.95;1.65;;;;;;;;;;5033630;28;20063;-81
2024/01/21 09:47:43;;;;;;;9.25;1.98;;;;;;;;;;5018157;28;20498;-80
2024/01/21 09:50:10;;;;;;;4.53;1.90;;;;;;;;;;5019198;28;20032;-82
2024/01/21 09:52:36;;;;;;;4.40;1.60;;;;;;;;;;5030579;28;20040;-82
2024/01/21 09:55:02;;;;;;;3.78;1.70;;;;;;;;;;5032758;28;20077;-83
2024/01/21 09:57:27;;;;;;;4.13;1.73;;;;;;;;;;5029146;28;20061;-83
2024/01/21 09:59:55;;;;;;;4.45;1.80;;;;;;;;;;5029235;28;20038;-83
2024/01/21 10:02:22;;;;;;;4.50;1.60;;;;;;;;;;5006158;28;20053;-83
2024/01/21 10:04:48;;;;;;;3.33;1.70;;;;;;;;;;5011157;28;20030;-82
2024/01/21 10:07:13;;;;;;;3.13;1.60;;;;;;;;;;5015400;28;20037;-82
2024/01/21 10:09:39;;;;;;;2.22;1.27;;;;;;;;;;5034403;28;20037;-82
2024/01/21 10:12:06;;;;;;;3.05;1.50;;;;;;;;;;5028052;28;20038;-82
2024/01/21 10:14:32;;;;;;;4.45;1.95;;;;;;;;;;5030910;28;20030;-82
2024/01/21 10:17:01;;;;;;;7.22;1.40;;;;;;;;;;5028911;28;20029;-84
2024/01/21 10:19:31;;;;;;;2.53;1.35;;;;;;;;;;5024541;28;20033;-84
2024/01/21 10:22:13;;;;;;;3.00;1.60;;;;;;;;;;5029326;28;20060;-82
2024/01/21 10:24:46;;;;;;;6.85;2.30;;;;;;;;;;5034847;28;20044;-82
2024/01/21 10:27:13;;;;;;;2.92;1.50;;;;;;;;;;5026356;28;20044;-82
2024/01/21 10:29:43;;;;;;;4.07;1.60;;;;;;;;;;5014111;28;20058;-82
2024/01/21 10:32:10;;;;;;;2.92;1.50;;;;;;;;;;5035838;28;20048;-83
2024/01/21 10:34:49;;;;;;;9.23;2.33;;;;;;;;;;5030895;28;20064;-83
2024/01/21 10:37:18;;;;;;;5.07;1.80;;;;;;;;;;5025109;28;20034;-83
2024/01/21 10:39:45;;;;;;;6.82;2.40;;;;;;;;;;5025411;28;20280;-82
2024/01/21 10:42:13;;;;;;;5.95;1.92;;;;;;;;;;5028460;28;20036;-83
2024/01/21 10:44:39;;;;;;;5.03;1.58;;;;;;;;;;5005915;28;20103;-83
2024/01/21 10:47:07;;;;;;;2.78;1.55;;;;;;;;;;5027863;28;20041;-82
2024/01/21 10:49:33;;;;;;;5.63;2.03;;;;;;;;;;5018944;28;20034;-82
2024/01/21 10:51:59;;;;;;;10.63;3.30;;;;;;;;;;5002418;28;20121;-82
2024/01/21 10:54:24;;;;;;;5.45;2.22;;;;;;;;;;5015501;28;20057;-82
2024/01/21 10:56:50;;;;;;;6.38;1.80;;;;;;;;;;5026080;28;20037;-82
2024/01/21 10:59:16;;;;;;;6.65;1.60;;;;;;;;;;5026422;28;20041;-82
2024/01/21 11:01:43;;;;;;;3.53;1.70;;;;;;;;;;5029034;28;20059;-83
2024/01/21 11:04:12;;;;;;;3.65;1.60;;;;;;;;;;5026560;28;20034;-84
2024/01/21 11:06:48;;;;;;;2.88;1.58;;;;;;;;;;5014248;28;20040;-83
2024/01/21 11:09:16;;;;;;;4.68;1.52;;;;;;;;;;5024369;28;20045;-82
2024/01/21 11:11:44;;;;;;;2.47;1.40;;;;;;;;;;5028185;28;20072;-83
2024/01/21 11:14:35;;;;;;;2.33;1.33;;;;;;;;;;5011088;28;20077;-84
2024/01/21 11:17:05;;;;;;;7.63;1.83;;;;;;;;;;5028970;28;20060;-83
2024/01/21 11:19:55;;;;;;;4.13;1.83;;;;;;;;;;5016317;28;20533;-82
2024/01/21 11:22:25;;;;;;;3.85;1.60;;;;;;;;;;5024655;28;20061;-83
2024/01/21 11:24:53;;;;;;;3.08;1.40;;;;;;;;;;5032639;28;20041;-83
2024/01/21 11:27:26;;;;;;;7.85;2.60;;;;;;;;;;5028836;28;20033;-82
2024/01/21 11:29:57;;;;;;;3.60;1.60;;;;;;;;;;5030322;28;20109;-82
2024/01/21 11:32:30;;;;;;;7.57;2.88;;;;;;;;;;5014890;28;20092;-83
2024/01/21 11:35:07;;;;;;;7.30;2.45;;;;;;;;;;5031558;28;20091;-83
2024/01/21 11:37:33;;;;;;;8.57;2.55;;;;;;;;;;5032335;28;20072;-83
2024/01/21 11:40:00;;;;;;;2.45;1.40;;;;;;;;;;5001945;28;20022;-84
2024/01/21 11:42:26;;;;;;;5.05;2.00;;;;;;;;;;5011342;28;20063;-83
2024/01/21 11:45:01;;;;;;;7.00;1.85;;;;;;;;;;5021537;28;20033;-85
2024/01/21 11:47:26;;;;;;;6.88;2.20;;;;;;;;;;5027897;28;20042;-84
2024/01/21 11:49:53;;;;;;;8.95;2.40;;;;;;;;;;5024852;28;20033;-84
2024/01/21 11:52:18;;;;;;;6.72;1.63;;;;;;;;;;5021457;28;20116;-83
2024/01/21 11:54:43;;;;;;;3.35;1.40;;;;;;;;;;5022154;28;20123;-84
2024/01/21 11:57:09;;;;;;;4.30;1.45;;;;;;;;;;5022437;28;20109;-86
2024/01/21 11:59:35;;;;;;;4.10;1.50;;;;;;;;;;5017503;28;20030;-85
2024/01/21 12:02:01;;;;;;;6.68;1.75;;;;;;;;;;5007068;28;20153;-86
2024/01/21 12:04:27;;;;;;;11.85;2.70;;;;;;;;;;4991425;28;20049;-84
2024/01/21 12:06:54;;;;;;;10.15;2.38;;;;;;;;;;4994748;28;20049;-84
2024/01/21 12:09:21;;;;;;;10.50;2.50;;;;;;;;;;5017553;28;20060;-85
2024/01/21 12:11:48;;;;;;;6.70;2.00;;;;;;;;;;5014245;28;20120;-84
2024/01/21 12:14:14;;;;;;;5.20;2.03;;;;;;;;;;4990221;28;20046;-85
2024/01/21 12:16:41;;;;;;;6.07;1.65;;;;;;;;;;5010064;28;20129;-82
2024/01/21 12:19:07;;;;;;;4.22;1.30;;;;;;;;;;5035118;28;20097;-85
2024/01/21 12:21:33;;;;;;;2.92;1.40;;;;;;;;;;5019927;28;20066;-84
2024/01/21 12:24:00;;;;;;;3.72;1.00;;;;;;;;;;5027451;28;20057;-84
2024/01/21 12:26:29;;;;;;;1.67;1.10;;;;;;;;;;5017081;28;20054;-87
2024/01/21 12:28:59;;;;;;;2.83;1.27;;;;;;;;;;5014290;28;20025;-85
2024/01/21 12:35:12;;;;;;;2.13;1.20;;;;;;;;;;4962465;28;20062;-84
2024/01/21 12:37:53;;;;;;;2.08;1.30;;;;;;;;;;4975665;28;20651;-84
2024/01/21 12:40:22;;;;;;;10.65;2.22;;;;;;;;;;4999938;28;20038;-84
2024/01/21 12:43:23;;;;;;;5.47;2.08;;;;;;;;;;4979040;28;20042;-83
2024/01/21 12:46:15;;;;;;;2.97;1.10;;;;;;;;;;4970493;28;20061;-84
2024/01/21 12:49:16;;;;;;;5.53;2.08;;;;;;;;;;4967503;28;20540;-83
2024/01/21 12:52:17;;;;;;;3.20;2.08;;;;;;;;;;4969458;28;20063;-84
2024/01/21 12:54:58;;;;;;;3.33;1.70;;;;;;;;;;4968200;28;20052;-84
2024/01/21 12:57:50;;;;;;;2.13;1.48;;;;;;;;;;4953179;28;20121;-84
2024/01/21 13:03:52;;;;;;;3.80;2.00;;;;;;;;;;4967865;28;20042;-85
2024/01/21 13:06:30;;;;;;;5.82;2.42;;;;;;;;;;4968300;28;20047;-85
2024/01/21 13:09:18;;;;;;;2.53;1.80;;;;;;;;;;4963242;28;20045;-84
2024/01/21 13:12:02;;;;;;;2.00;1.20;;;;;;;;;;4939108;28;20077;-85
2024/01/21 13:14:31;;;;;;;3.05;1.95;;;;;;;;;;4954085;28;20049;-86
2024/01/21 13:17:01;;;;;;;2.75;1.50;;;;;;;;;;4967529;28;20129;-85
2024/01/21 13:19:30;;;;;;;4.53;1.63;;;;;;;;;;4958174;28;20058;-84
2024/01/21 13:22:06;;;;;;;3.85;1.52;;;;;;;;;;4969884;28;20037;-87
2024/01/21 13:24:34;;;;;;;4.75;1.60;;;;;;;;;;4966537;28;20038;-85
2024/01/21 13:27:09;;;;;;;8.10;2.40;;;;;;;;;;4969706;28;20039;-84
2024/01/21 13:32:20;;;;;;;9.85;2.95;;;;;;;;;;4966201;28;20515;-85
2024/01/21 13:34:46;;;;;;;5.20;1.90;;;;;;;;;;4965398;28;20163;-83
2024/01/21 13:37:12;;;;;;;2.17;1.45;;;;;;;;;;4967567;28;20035;-83
2024/01/21 13:39:40;;;;;;;5.63;1.40;;;;;;;;;;4979212;28;20061;-83
2024/01/21 13:42:06;;;;;;;5.60;1.70;;;;;;;;;;4972427;28;20110;-84
2024/01/21 13:44:32;;;;;;;5.68;2.28;;;;;;;;;;4956086;28;20046;-83
2024/01/21 13:46:57;;;;;;;4.15;1.90;;;;;;;;;;4970853;28;20062;-85
2024/01/21 13:49:23;;;;;;;3.55;1.75;;;;;;;;;;4972348;28;20106;-84
2024/01/21 13:51:50;;;;;;;4.78;2.03;;;;;;;;;;4956327;28;20037;-85
2024/01/21 13:54:16;;;;;;;5.03;2.00;;;;;;;;;;4969979;28;20027;-84
2024/01/21 13:56:41;;;;;;;3.97;1.50;;;;;;;;;;4970206;28;20523;-84
2024/01/21 13:59:07;;;;;;;3.60;1.80;;;;;;;;;;4956250;28;20043;-84
2024/01/21 14:01:34;;;;;;;2.65;1.50;;;;;;;;;;4974482;28;20512;-84
2024/01/21 14:04:01;;;;;;;2.40;1.67;;;;;;;;;;4951491;28;20050;-84
2024/01/21 14:06:26;;;;;;;3.35;1.52;;;;;;;;;;4974442;28;20035;-85
2024/01/21 14:08:52;;;;;;;4.82;1.83;;;;;;;;;;4950542;28;20093;-85
2024/01/21 14:11:17;;;;;;;3.13;1.90;;;;;;;;;;4965851;28;20482;-85
2024/01/21 14:13:43;;;;;;;2.90;1.75;;;;;;;;;;4965146;28;20109;-85
2024/01/21 14:16:08;;;;;;;10.60;2.97;;;;;;;;;;4963536;28;20493;-86
2024/01/21 14:18:34;;;;;;;9.23;2.75;;;;;;;;;;4953667;28;20035;-85
2024/01/21 14:20:59;;;;;;;8.82;2.17;;;;;;;;;;4965774;28;20496;-84
2024/01/21 14:23:25;;;;;;;8.07;3.30;;;;;;;;;;4964065;28;20117;-84
2024/01/21 14:25:54;;;;;;;7.20;3.22;;;;;;;;;;4963561;28;20063;-84
2024/01/21 14:28:22;;;;;;;10.38;3.72;;;;;;;;;;4964378;28;20050;-84
2024/01/21 14:30:49;;;;;;;6.45;2.58;;;;;;;;;;4965411;28;20046;-83
2024/01/21 14:33:15;;;;;;;4.90;2.78;;;;;;;;;;4965671;28;20102;-83
2024/01/21 14:35:43;;;;;;;12.48;5.20;;;;;;;;;;4966197;28;20472;-84
2024/01/21 14:38:09;;;;;;;8.38;4.20;;;;;;;;;;4963849;28;20647;-84
2024/01/21 14:40:35;;;;;;;4.50;2.60;;;;;;;;;;4964091;28;20485;-84
2024/01/21 14:43:00;;;;;;;5.53;2.78;;;;;;;;;;4951657;28;20045;-83
2024/01/21 14:45:26;;;;;;;6.13;2.50;;;;;;;;;;4951137;28;20066;-84
2024/01/21 14:47:51;;;;;;;6.38;3.90;;;;;;;;;;4963726;28;20027;-86
2024/01/21 14:50:17;;;;;;;8.90;4.88;;;;;;;;;;4961064;28;20029;-84
2024/01/21 14:52:44;;;;;;;7.10;4.10;;;;;;;;;;4962728;28;20038;-83